createdAt,value
2018-07-17T00:01:53.422Z,5.60
2018-07-17T00:04:22.159Z,5.70
2018-07-17T00:06:50.862Z,5.73
2018-07-17T00:09:19.566Z,5.67
2018-07-17T00:11:48.277Z,5.60
2018-07-17T00:14:16.929Z,6.30
2018-07-17T00:16:45.556Z,5.90
2018-07-17T00:19:14.199Z,6.10
2018-07-17T00:21:42.898Z,6.13
2018-07-17T00:24:11.568Z,5.70
2018-07-17T00:26:40.186Z,6.00
2018-07-17T00:29:08.790Z,6.10
2018-07-17T00:31:37.430Z,5.90
2018-07-17T00:34:06.387Z,6.23
2018-07-17T00:36:35.047Z,5.67
2018-07-17T00:39:03.935Z,6.80
2018-07-17T00:41:32.582Z,6.80
2018-07-17T00:44:01.402Z,6.47
2018-07-17T00:46:29.982Z,5.80
2018-07-17T00:48:58.673Z,5.83
2018-07-17T00:51:27.367Z,6.03
2018-07-17T00:53:56.081Z,6.10
2018-07-17T00:56:24.706Z,6.57
2018-07-17T00:58:53.344Z,6.27
2018-07-17T01:01:27.336Z,6.40
2018-07-17T01:04:01.261Z,6.50
2018-07-17T01:06:35.211Z,5.87
2018-07-17T01:09:09.282Z,6.80
2018-07-17T01:11:43.054Z,6.47
2018-07-17T01:14:46.923Z,6.00
2018-07-17T01:17:16.511Z,5.70
2018-07-17T01:19:45.114Z,6.37
2018-07-17T01:22:13.829Z,6.23
2018-07-17T01:24:42.457Z,6.20
2018-07-17T01:27:11.283Z,5.93
2018-07-17T01:29:39.873Z,6.73
2018-07-17T01:32:08.450Z,6.33
2018-07-17T01:34:37.184Z,6.10
2018-07-17T01:37:05.855Z,5.63
2018-07-17T01:39:34.521Z,6.23
2018-07-17T01:42:03.134Z,6.80
2018-07-17T01:44:31.805Z,5.80
2018-07-17T01:47:00.447Z,6.10
2018-07-17T01:49:29.048Z,6.60
2018-07-17T01:51:57.673Z,6.00
2018-07-17T01:54:26.306Z,6.60
2018-07-17T01:56:54.830Z,6.87
2018-07-17T01:59:23.428Z,6.37
2018-07-17T02:01:52.149Z,6.57
2018-07-17T02:04:20.797Z,6.83
2018-07-17T02:06:49.471Z,6.00
2018-07-17T02:09:18.226Z,6.03
2018-07-17T02:11:46.819Z,6.00
2018-07-17T02:14:15.466Z,6.17
2018-07-17T02:16:44.070Z,6.70
2018-07-17T02:19:12.661Z,6.03
2018-07-17T02:21:41.275Z,6.47
2018-07-17T02:24:10.007Z,6.50
2018-07-17T02:26:38.634Z,6.30
2018-07-17T02:29:07.291Z,7.00
2018-07-17T02:31:35.979Z,6.40
2018-07-17T02:34:04.667Z,6.40
2018-07-17T02:36:33.243Z,6.40
2018-07-17T02:39:01.906Z,6.20
2018-07-17T02:41:30.553Z,6.87
2018-07-17T02:43:59.242Z,6.60
2018-07-17T02:46:27.499Z,5.90
2018-07-17T02:48:56.079Z,6.73
2018-07-17T02:51:24.787Z,6.40
2018-07-17T02:53:53.478Z,7.10
2018-07-17T02:56:22.119Z,6.40
2018-07-17T02:58:50.782Z,6.40
2018-07-17T03:01:19.463Z,6.90
2018-07-17T03:03:48.126Z,6.87
2018-07-17T03:06:16.783Z,7.10
2018-07-17T03:08:45.429Z,7.10
2018-07-17T03:11:14.095Z,6.77
2018-07-17T03:13:42.827Z,7.00
2018-07-17T03:16:11.511Z,6.80
2018-07-17T03:18:40.190Z,7.23
2018-07-17T03:21:08.933Z,7.13
2018-07-17T03:23:37.556Z,7.27
2018-07-17T03:26:06.254Z,7.33
2018-07-17T03:28:34.935Z,6.70
2018-07-17T03:31:03.626Z,7.17
2018-07-17T03:33:32.299Z,7.60
2018-07-17T03:36:01.050Z,7.53
2018-07-17T03:38:29.680Z,6.80
2018-07-17T03:40:58.451Z,7.27
2018-07-17T03:43:27.142Z,7.83
2018-07-17T03:45:55.806Z,7.97
2018-07-17T03:48:24.445Z,7.60
2018-07-17T03:50:53.159Z,6.80
2018-07-17T03:53:21.785Z,7.27
2018-07-17T03:55:50.510Z,7.43
2018-07-17T03:58:19.179Z,6.80
2018-07-17T04:00:47.794Z,7.00
2018-07-17T04:03:16.492Z,8.07
2018-07-17T04:05:45.205Z,6.67
2018-07-17T04:08:13.814Z,7.40
2018-07-17T04:10:42.503Z,7.20
2018-07-17T04:13:11.110Z,7.67
2018-07-17T04:15:39.694Z,6.67
2018-07-17T04:18:08.477Z,7.53
2018-07-17T04:20:37.267Z,6.73
2018-07-17T04:23:06.476Z,7.50
2018-07-17T04:25:35.296Z,8.00
2018-07-17T04:28:04.083Z,8.00
2018-07-17T04:30:32.711Z,8.93
2018-07-17T04:33:01.407Z,7.80
2018-07-17T04:35:30.111Z,7.70
2018-07-17T04:37:58.797Z,6.87
2018-07-17T04:40:27.438Z,6.93
2018-07-17T04:42:56.145Z,6.80
2018-07-17T04:45:24.865Z,6.30
2018-07-17T04:47:53.506Z,6.20
2018-07-17T04:50:22.189Z,6.73
2018-07-17T04:52:50.838Z,7.20
2018-07-17T04:55:19.520Z,6.87
2018-07-17T04:57:48.146Z,6.70
2018-07-17T05:00:16.895Z,7.67
2018-07-17T05:02:45.575Z,6.70
2018-07-17T05:05:14.309Z,6.40
2018-07-17T05:10:58.625Z,6.20
2018-07-17T05:13:27.259Z,6.83
2018-07-17T05:15:55.895Z,7.00
2018-07-17T05:18:24.566Z,6.83
2018-07-17T05:20:53.230Z,6.43
2018-07-17T05:23:21.793Z,6.03
2018-07-17T05:25:50.466Z,6.50
2018-07-17T05:28:19.211Z,7.60
2018-07-17T05:30:47.842Z,6.10
2018-07-17T05:33:16.455Z,6.67
2018-07-17T05:35:45.106Z,6.37
2018-07-17T05:38:13.727Z,6.43
2018-07-17T05:40:42.364Z,6.27
2018-07-17T05:43:11.035Z,6.77
2018-07-17T05:45:39.685Z,6.80
2018-07-17T05:48:08.401Z,6.63
2018-07-17T05:50:37.084Z,6.00
2018-07-17T05:53:05.746Z,6.87
2018-07-17T05:55:34.419Z,7.33
2018-07-17T05:58:03.151Z,7.60
2018-07-17T06:00:31.916Z,6.87
2018-07-17T06:03:00.594Z,6.40
2018-07-17T06:05:29.289Z,6.60
2018-07-17T06:07:57.917Z,7.43
2018-07-17T06:10:26.705Z,6.83
2018-07-17T06:12:55.350Z,7.60
2018-07-17T06:15:23.994Z,7.20
2018-07-17T06:17:52.606Z,6.43
2018-07-17T06:20:21.308Z,7.33
2018-07-17T06:22:49.963Z,7.30
2018-07-17T06:25:18.567Z,6.43
2018-07-17T06:27:47.211Z,7.07
2018-07-17T06:30:15.877Z,6.80
2018-07-17T06:32:44.498Z,6.20
2018-07-17T06:35:13.078Z,6.60
2018-07-17T06:37:41.390Z,6.10
2018-07-17T06:40:10.053Z,6.13
2018-07-17T06:42:38.715Z,6.20
2018-07-17T06:45:07.432Z,5.63
2018-07-17T06:47:36.091Z,5.80
2018-07-17T06:50:05.369Z,6.23
2018-07-17T06:52:33.960Z,6.03
2018-07-17T06:55:02.612Z,5.50
2018-07-17T06:57:31.304Z,6.27
2018-07-17T06:59:59.543Z,6.33
2018-07-17T07:02:28.221Z,6.03
2018-07-17T07:04:56.927Z,6.17
2018-07-17T07:07:25.621Z,5.53
2018-07-17T07:09:54.267Z,5.97
2018-07-17T07:12:22.863Z,5.57
2018-07-17T07:14:51.553Z,5.53
2018-07-17T07:17:20.242Z,5.53
2018-07-17T07:19:48.883Z,5.90
2018-07-17T07:22:17.553Z,5.23
2018-07-17T07:24:46.153Z,5.70
2018-07-17T07:27:14.782Z,5.43
2018-07-17T07:29:43.486Z,5.10
2018-07-17T07:32:12.150Z,5.50
2018-07-17T07:34:40.768Z,6.00
2018-07-17T07:37:09.509Z,4.80
2018-07-17T07:39:38.258Z,5.33
2018-07-17T07:42:06.991Z,4.77
2018-07-17T07:44:35.613Z,4.67
2018-07-17T07:47:04.272Z,4.30
2018-07-17T07:49:32.982Z,4.57
2018-07-17T07:52:01.648Z,4.57
2018-07-17T07:54:30.319Z,4.23
2018-07-17T07:56:58.914Z,4.13
2018-07-17T07:59:27.486Z,4.20
2018-07-17T08:01:56.201Z,4.57
2018-07-17T08:04:24.826Z,4.13
2018-07-17T08:06:53.452Z,3.70
2018-07-17T08:09:22.093Z,3.30
2018-07-17T08:11:50.797Z,3.60
2018-07-17T08:14:19.373Z,4.00
2018-07-17T08:16:47.986Z,3.80
2018-07-17T08:19:16.687Z,3.50
2018-07-17T08:21:45.274Z,3.73
2018-07-17T08:24:13.919Z,3.70
2018-07-17T08:26:42.743Z,3.63
2018-07-17T08:29:11.428Z,3.30
2018-07-17T08:31:40.158Z,3.70
2018-07-17T08:34:08.949Z,3.20
2018-07-17T08:36:37.617Z,3.60
2018-07-17T08:39:07.613Z,3.30
2018-07-17T08:41:36.334Z,3.70
2018-07-17T08:44:05.022Z,3.23
2018-07-17T08:46:33.972Z,3.30
2018-07-17T08:49:02.691Z,3.30
2018-07-17T08:51:31.382Z,3.30
2018-07-17T08:54:00.056Z,3.20
2018-07-17T08:56:28.706Z,3.00
2018-07-17T08:58:57.353Z,3.10
2018-07-17T09:01:26.025Z,3.00
2018-07-17T09:03:54.609Z,2.93
2018-07-17T09:06:23.196Z,3.10
2018-07-17T09:08:51.856Z,2.83
2018-07-17T09:11:20.467Z,2.67
2018-07-17T09:13:49.058Z,2.93
2018-07-17T09:16:17.708Z,2.70
2018-07-17T09:18:46.299Z,2.73
2018-07-17T09:21:14.911Z,2.90
2018-07-17T09:23:43.507Z,2.50
2018-07-17T09:26:13.653Z,2.33
2018-07-17T09:28:45.579Z,2.50
2018-07-17T09:31:14.260Z,2.30
2018-07-17T09:33:43.001Z,2.40
2018-07-17T09:36:11.239Z,2.37
2018-07-17T09:38:39.856Z,2.50
2018-07-17T09:41:08.414Z,2.30
2018-07-17T09:43:37.049Z,2.60
2018-07-17T09:46:05.667Z,2.80
2018-07-17T09:48:34.243Z,2.40
2018-07-17T09:51:02.894Z,2.37
2018-07-17T09:53:31.475Z,2.37
2018-07-17T09:56:00.055Z,2.37
2018-07-17T09:58:28.701Z,2.23
2018-07-17T10:01:02.549Z,2.40
2018-07-17T10:03:31.167Z,2.27
2018-07-17T10:05:59.759Z,2.57
2018-07-17T10:08:28.349Z,2.40
2018-07-17T10:10:56.989Z,2.20
2018-07-17T10:13:25.565Z,2.60
2018-07-17T10:15:54.180Z,2.20
2018-07-17T10:18:22.841Z,2.50
2018-07-17T10:20:51.409Z,2.40
2018-07-17T10:23:20.038Z,2.40
2018-07-17T10:25:48.616Z,2.40
2018-07-17T10:28:23.458Z,2.60
2018-07-17T10:30:52.050Z,3.00
2018-07-17T10:33:20.758Z,2.60
2018-07-17T10:35:49.471Z,2.63
2018-07-17T10:38:18.099Z,3.07
2018-07-17T10:40:46.743Z,2.67
2018-07-17T10:43:15.305Z,3.07
2018-07-17T10:45:44.078Z,2.80
2018-07-17T10:48:12.828Z,3.30
2018-07-17T10:50:41.494Z,3.30
2018-07-17T10:53:10.091Z,3.80
2018-07-17T10:55:38.825Z,3.00
2018-07-17T10:58:07.561Z,3.47
2018-07-17T11:00:36.274Z,3.67
2018-07-17T11:03:05.025Z,3.37
2018-07-17T11:05:33.732Z,3.30
2018-07-17T11:08:02.426Z,3.47
2018-07-17T11:10:31.073Z,3.23
2018-07-17T11:12:59.800Z,3.20
2018-07-17T11:15:28.516Z,3.40
2018-07-17T11:17:57.137Z,3.33
2018-07-17T11:20:25.741Z,3.70
2018-07-17T11:22:54.342Z,3.30
2018-07-17T11:25:23.045Z,4.07
2018-07-17T11:27:51.775Z,3.93
2018-07-17T11:30:20.457Z,3.67
2018-07-17T11:32:49.069Z,3.40
2018-07-17T11:35:17.606Z,3.67
2018-07-17T11:37:46.268Z,3.63
2018-07-17T11:40:15.016Z,3.77
2018-07-17T11:42:43.723Z,3.30
2018-07-17T11:45:12.431Z,3.30
2018-07-17T11:47:41.251Z,3.00
2018-07-17T11:50:09.840Z,3.27
2018-07-17T11:52:38.475Z,2.80
2018-07-17T11:55:07.114Z,3.00
2018-07-17T11:57:35.922Z,2.90
2018-07-17T12:00:05.468Z,2.87
2018-07-17T12:02:34.102Z,2.60
2018-07-17T12:05:02.714Z,2.43
2018-07-17T12:07:31.270Z,2.80
2018-07-17T12:09:59.917Z,2.20
2018-07-17T12:12:28.606Z,2.10
2018-07-17T12:14:57.225Z,1.90
2018-07-17T12:17:25.848Z,2.07
2018-07-17T12:19:54.585Z,1.80
2018-07-17T12:22:23.039Z,2.00
2018-07-17T12:24:51.668Z,1.90
2018-07-17T12:27:20.349Z,1.87
2018-07-17T12:35:47.850Z,2.40
2018-07-17T12:38:16.568Z,2.10
2018-07-17T12:40:45.156Z,2.50
2018-07-17T12:43:13.837Z,2.10
2018-07-17T12:45:42.541Z,2.27
2018-07-17T12:48:12.889Z,2.00
2018-07-17T12:50:42.497Z,2.20
2018-07-17T12:53:11.619Z,2.30
2018-07-17T12:55:40.318Z,2.30
2018-07-17T12:58:08.966Z,2.30
2018-07-17T13:00:37.666Z,2.10
2018-07-17T13:03:06.615Z,2.10
2018-07-17T13:05:35.306Z,2.33
2018-07-17T13:08:03.952Z,2.27
2018-07-17T13:10:32.591Z,2.20
2018-07-17T13:13:01.245Z,2.10
2018-07-17T13:15:29.953Z,2.20
2018-07-17T13:17:58.575Z,2.57
2018-07-17T13:20:27.282Z,2.73
2018-07-17T13:22:56.021Z,2.63
2018-07-17T13:25:24.692Z,2.50
2018-07-17T13:27:53.388Z,3.07
2018-07-17T13:30:22.061Z,2.60
2018-07-17T13:32:50.710Z,2.30
2018-07-17T13:35:19.407Z,2.50
2018-07-17T13:37:48.123Z,2.47
2018-07-17T13:40:16.775Z,2.30
2018-07-17T13:42:45.461Z,2.17
2018-07-17T13:45:14.154Z,2.30
2018-07-17T13:47:42.897Z,2.70
2018-07-17T13:50:11.591Z,2.53
2018-07-17T13:52:40.265Z,2.63
2018-07-17T13:55:08.914Z,2.70
2018-07-17T13:57:37.620Z,2.60
2018-07-17T14:00:07.226Z,2.87
2018-07-17T14:02:35.928Z,2.77
2018-07-17T14:05:04.665Z,3.00
2018-07-17T14:07:33.316Z,3.20
2018-07-17T14:10:01.598Z,2.80
2018-07-17T14:12:30.287Z,2.90
2018-07-17T14:14:58.891Z,2.83
2018-07-17T14:17:27.604Z,2.87
2018-07-17T14:19:56.275Z,3.10
2018-07-17T14:22:24.944Z,2.70
2018-07-17T14:24:53.564Z,3.00
2018-07-17T14:27:22.242Z,2.63
2018-07-17T14:29:50.909Z,2.90
2018-07-17T14:32:19.542Z,2.87
2018-07-17T14:34:48.178Z,2.90
2018-07-17T14:37:16.853Z,2.73
2018-07-17T14:39:45.502Z,2.80
2018-07-17T14:42:14.309Z,3.80
2018-07-17T14:44:42.888Z,3.27
2018-07-17T14:47:11.540Z,2.97
2018-07-17T14:49:40.090Z,3.10
2018-07-17T14:52:08.786Z,3.13
2018-07-17T14:54:37.496Z,3.57
2018-07-17T14:57:06.350Z,3.50
2018-07-17T14:59:35.025Z,3.43
2018-07-17T15:02:03.719Z,3.47
2018-07-17T15:04:32.503Z,3.30
2018-07-17T15:07:01.179Z,3.83
2018-07-17T15:09:29.891Z,4.13
2018-07-17T15:11:58.526Z,4.00
2018-07-17T15:14:27.153Z,5.00
2018-07-17T15:16:55.801Z,4.70
2018-07-17T15:19:24.529Z,4.80
2018-07-17T15:21:53.216Z,4.73
2018-07-17T15:24:21.949Z,4.80
2018-07-17T15:26:50.682Z,4.90
2018-07-17T15:29:19.347Z,4.60
2018-07-17T15:31:47.975Z,4.43
2018-07-17T15:34:16.535Z,4.30
2018-07-17T15:36:45.228Z,5.73
2018-07-17T15:39:13.826Z,5.30
2018-07-17T15:41:42.420Z,5.77
2018-07-17T15:44:11.087Z,5.37
2018-07-17T15:49:42.179Z,4.67
2018-07-17T15:52:10.847Z,4.70
2018-07-17T15:54:39.480Z,4.87
2018-07-17T15:57:08.195Z,5.07
2018-07-17T15:59:36.849Z,4.87
2018-07-17T16:02:05.507Z,5.00
2018-07-17T16:04:34.219Z,4.37
2018-07-17T16:07:02.834Z,4.50
2018-07-17T16:09:31.506Z,4.10
2018-07-17T16:12:04.562Z,3.90
2018-07-17T16:14:33.300Z,4.03
2018-07-17T16:17:01.889Z,4.13
2018-07-17T16:22:39.322Z,3.80
2018-07-17T16:25:08.011Z,3.53
2018-07-17T16:27:36.624Z,3.10
2018-07-17T16:30:06.652Z,3.20
2018-07-17T16:32:35.338Z,3.17
2018-07-17T16:35:04.094Z,2.90
2018-07-17T16:37:32.740Z,3.10
2018-07-17T16:40:01.400Z,3.00
2018-07-17T16:42:30.108Z,2.77
2018-07-17T16:44:58.662Z,2.93
2018-07-17T16:47:27.348Z,2.90
2018-07-17T16:49:55.953Z,2.80
2018-07-17T16:52:24.572Z,2.93
2018-07-17T16:54:59.185Z,3.07
2018-07-17T16:57:28.134Z,2.80
2018-07-17T16:59:56.365Z,11.03
2018-07-17T17:02:36.926Z,9.50
2018-07-17T17:05:05.687Z,3.13
2018-07-17T17:07:34.411Z,3.50
2018-07-17T17:10:03.141Z,3.63
2018-07-17T17:12:31.794Z,3.60
2018-07-17T17:15:00.386Z,3.50
2018-07-17T17:17:29.188Z,3.83
2018-07-17T17:19:57.987Z,5.10
2018-07-17T17:22:26.718Z,4.00
2018-07-17T17:24:55.478Z,3.60
2018-07-17T17:27:24.159Z,3.60
2018-07-17T17:29:52.838Z,3.53
2018-07-17T17:32:21.496Z,3.80
2018-07-17T17:34:50.209Z,4.40
2018-07-17T17:37:18.875Z,4.20
2018-07-17T17:39:47.489Z,4.20
2018-07-17T17:42:16.159Z,4.40
2018-07-17T17:44:50.486Z,4.37
2018-07-17T17:47:24.443Z,4.30
2018-07-17T17:49:53.191Z,4.43
2018-07-17T17:52:38.853Z,4.20
2018-07-17T17:55:07.703Z,4.23
2018-07-17T17:57:36.582Z,4.07
2018-07-17T18:00:05.890Z,4.63
2018-07-17T18:02:34.668Z,3.87
2018-07-17T18:05:03.463Z,4.47
2018-07-17T18:07:32.088Z,4.90
2018-07-17T18:10:01.022Z,5.20
2018-07-17T18:12:35.508Z,4.83
2018-07-17T18:15:04.255Z,4.70
2018-07-17T18:17:33.020Z,4.87
2018-07-17T18:20:19.084Z,5.07
2018-07-17T18:22:49.898Z,5.30
2018-07-17T18:25:18.665Z,5.20
2018-07-17T18:27:47.435Z,5.10
2018-07-17T18:30:16.110Z,4.90
2018-07-17T18:32:44.730Z,5.07
2018-07-17T18:35:13.444Z,5.03
2018-07-17T18:37:42.624Z,5.07
2018-07-17T18:40:10.934Z,5.00
2018-07-17T18:42:39.620Z,5.67
2018-07-17T18:45:08.311Z,5.77
2018-07-17T18:47:37.109Z,5.00
2018-07-17T18:50:12.865Z,5.40
2018-07-17T18:52:34.616Z,5.10
2018-07-17T18:55:03.401Z,5.30
2018-07-17T18:57:32.111Z,4.50
2018-07-17T19:00:00.859Z,4.23
2018-07-17T19:02:29.521Z,4.03
2018-07-17T19:04:58.238Z,3.80
2018-07-17T19:07:26.923Z,3.77
2018-07-17T19:13:01.020Z,4.53
2018-07-17T19:15:29.735Z,4.67
2018-07-17T19:17:58.542Z,5.87
2018-07-17T19:26:26.515Z,6.33
2018-07-17T19:28:55.279Z,6.60
2018-07-17T19:31:24.104Z,6.27
2018-07-17T19:33:52.759Z,7.10
2018-07-17T19:36:21.572Z,6.03
2018-07-17T19:38:50.438Z,6.23
2018-07-17T19:41:19.193Z,5.43
2018-07-17T19:52:48.083Z,6.30
2018-07-17T19:55:16.770Z,5.47
2018-07-17T19:57:45.522Z,5.43
2018-07-17T20:00:14.253Z,5.60
2018-07-17T20:02:42.909Z,6.17
2018-07-17T20:05:11.616Z,5.47
2018-07-17T20:07:40.375Z,6.17
2018-07-17T20:10:09.076Z,6.17
2018-07-17T20:12:37.755Z,5.80
2018-07-17T20:15:06.423Z,6.10
2018-07-17T20:17:34.734Z,6.43
2018-07-17T20:20:03.387Z,5.57
2018-07-17T20:22:32.115Z,5.60
2018-07-17T20:25:00.843Z,6.50
2018-07-17T20:27:29.511Z,6.57
2018-07-17T20:29:58.272Z,6.80
2018-07-17T20:32:27.047Z,7.47
2018-07-17T20:34:55.783Z,8.37
2018-07-17T20:37:24.519Z,8.07
2018-07-17T20:39:53.194Z,8.93
2018-07-17T20:42:21.883Z,8.97
2018-07-17T20:44:50.581Z,8.03
2018-07-17T20:47:19.321Z,8.10
2018-07-17T20:49:47.999Z,7.67
2018-07-17T20:52:16.785Z,7.23
2018-07-17T20:54:45.514Z,6.90
2018-07-17T20:57:14.218Z,7.77
2018-07-17T20:59:42.910Z,9.13
2018-07-17T21:02:11.606Z,8.03
2018-07-17T21:04:40.355Z,8.57
2018-07-17T21:07:09.086Z,8.47
2018-07-17T21:09:37.812Z,8.47
2018-07-17T21:12:06.527Z,8.40
2018-07-17T21:14:35.295Z,8.57
2018-07-17T21:17:04.069Z,8.60
2018-07-17T21:19:32.766Z,8.60
2018-07-17T21:22:01.535Z,8.80
2018-07-17T21:24:30.267Z,9.00
2018-07-17T21:26:58.970Z,9.33
2018-07-17T21:29:27.814Z,9.50
2018-07-17T21:31:56.622Z,9.97
2018-07-17T21:34:25.397Z,10.60
2018-07-17T21:36:54.106Z,11.10
2018-07-17T21:39:22.817Z,9.60
2018-07-17T21:41:51.496Z,9.23
2018-07-17T21:44:20.357Z,10.00
2018-07-17T21:46:48.995Z,8.80
2018-07-17T21:49:17.698Z,9.30
2018-07-17T21:51:46.438Z,8.20
2018-07-17T21:54:15.168Z,8.97
2018-07-17T21:56:43.826Z,9.53
2018-07-17T21:59:12.476Z,10.80
2018-07-17T22:01:41.152Z,9.80
2018-07-17T22:04:09.861Z,11.37
2018-07-17T22:06:38.543Z,11.63
2018-07-17T22:09:10.022Z,10.30
2018-07-17T22:11:38.731Z,14.47
2018-07-17T22:14:07.410Z,12.90
2018-07-17T22:16:36.236Z,12.20
2018-07-17T22:19:04.986Z,12.50
2018-07-17T22:21:33.766Z,12.43
2018-07-17T22:24:02.534Z,13.57
2018-07-17T22:26:31.587Z,13.70
2018-07-17T22:29:00.395Z,15.03
2018-07-17T22:31:29.083Z,13.63
2018-07-17T22:33:57.779Z,13.53
2018-07-17T22:36:26.453Z,12.00
2018-07-17T22:38:55.117Z,13.80
2018-07-17T22:41:23.777Z,16.90
2018-07-17T22:43:52.481Z,16.90
2018-07-17T22:46:21.970Z,18.40
2018-07-17T22:48:50.633Z,14.80
2018-07-17T22:51:19.337Z,15.23
2018-07-17T22:53:47.987Z,14.50
2018-07-17T22:56:16.685Z,12.90
2018-07-17T22:59:01.258Z,10.63
2018-07-17T23:01:29.899Z,10.13
2018-07-17T23:03:58.649Z,10.47
2018-07-17T23:06:27.472Z,10.07
2018-07-17T23:08:56.136Z,9.40
2018-07-17T23:11:24.864Z,8.30
2018-07-17T23:13:53.574Z,8.60
2018-07-17T23:16:22.265Z,8.20
2018-07-17T23:18:50.914Z,7.40
2018-07-17T23:21:19.541Z,6.97
2018-07-17T23:23:48.186Z,6.53
2018-07-17T23:26:16.831Z,7.00
2018-07-17T23:28:45.501Z,7.30
2018-07-17T23:31:14.253Z,7.40
2018-07-17T23:33:42.939Z,8.10
2018-07-17T23:36:11.630Z,8.00
2018-07-17T23:38:40.328Z,7.57
2018-07-17T23:41:09.013Z,7.73
2018-07-17T23:43:37.639Z,7.33
2018-07-17T23:46:06.318Z,6.70
2018-07-17T23:48:34.967Z,6.90
2018-07-17T23:51:03.642Z,7.07
2018-07-17T23:53:32.294Z,6.70
2018-07-17T23:56:00.998Z,6.93
2018-07-17T23:58:29.689Z,6.20
